• Join FlightAware (Why Join?)
  • Login
  • US Flag 
04:01AM EST


 

Airport Tracker/Info


-or-


 

Live Flight TrackerFlight Track Log ✈ N2024Y ✈ 30-Jul-2014 ✈ KEVB - KSSI

Flight Track Log - Related Links

Times and Time Zones

All times are in EDT time to prevent confusion due to time zone crossing. See the N2024Y flight status page for this flight to view local times or setup timezone preferences in your user account.

Time Position Orientation Groundspeed Altitude Reporting Facility
EDT Latitude Longitude Course Direction KTS MPH feet Rate Location/Type
07:29PM 29.0553 -80.9258 350° North 81 93 700  Level Jacksonville Center
07:30PM 29.0736 -80.9017 49° Northeast 87 100 1,300 540 Climbing Jacksonville Center
07:31PM 29.0967 -80.9108 341° North 87 100 1,900 600 Climbing Jacksonville Center
07:33PM 29.1197 -80.9222 337° Northwest 78 90 2,600 540 Climbing Jacksonville Center
07:34PM 29.1408 -80.9289 345° North 77 89 3,100 420 Climbing Jacksonville Center
07:35PM 29.1951 -80.9777 350° North  Level Estimated
07:35PM 29.1597 -80.9381 337° Northwest 72 83 3,500  Level Jacksonville Center
07:36PM 29.1786 -80.9447 343° North 74 85 3,900 300 Climbing Jacksonville Center
07:37PM 29.1936 -80.9706 304° West 92 106 4,200 240 Climbing Jacksonville Center
07:38PM 29.2086 -80.9964 304° West 100 115 4,500 240 Climbing Jacksonville Center
07:39PM 29.2319 -81.0197 319° Northwest 102 117 4,800 240 Climbing Jacksonville Center
07:40PM 29.2469 -81.0458 303° West 105 121 5,000 60 Climbing Jacksonville Center
07:41PM 29.2681 -81.0714 313° West 114 131 5,000 -60 Level Jacksonville Center
07:42PM 29.2872 -81.0972 310° West 109 125 4,900  Descending Jacksonville Center
07:43PM 29.3128 -81.1256 316° Northwest 107 123 5,000  Climbing Jacksonville Center
07:44PM 29.3419 -81.1297 353° North 116 133 5,000  Level Jacksonville Center
07:45PM 29.3733 -81.1292 North 113 130 5,000  Level Jacksonville Center
07:46PM 29.4006 -81.1358 348° North 111 128 5,000  Level Jacksonville Center
07:47PM 29.4342 -81.1400 354° North 111 128 5,000 -60 Level Jacksonville Center
07:48PM 29.4633 -81.1489 345° North 109 125 4,900  Descending Jacksonville Center
07:49PM 29.4947 -81.1556 350° North 109 125 5,000  Climbing Jacksonville Center
07:50PM 29.5242 -81.1600 353° North 110 127 5,000  Level Jacksonville Center
07:51PM 29.5639 -81.1664 352° North 112 129 5,000  Level Jacksonville Center
07:52PM 29.5889 -81.1706 352° North 112 129 5,000  Level Jacksonville Center
07:53PM 29.6267 -81.1794 348° North 108 124 5,000  Level Jacksonville Center
07:54PM 29.6539 -81.1861 348° North 110 127 5,000  Level Jacksonville Center
07:55PM 29.6831 -81.1881 357° North 119 137 5,000 -60 Level Jacksonville Center
07:56PM 29.7250 -81.1944 352° North 112 129 4,900 -60 Descending Jacksonville Center
07:57PM 29.7542 -81.2011 349° North 111 128 4,900 60 Level Jacksonville Center
07:58PM 29.7731 -81.2033 354° North 111 128 5,000  Climbing Jacksonville Center
07:59PM 29.8086 -81.2097 351° North 106 122 5,000  Level Jacksonville Center
08:00PM 29.8381 -81.2164 349° North 105 121 5,000  Level Jacksonville Center
08:01PM 29.8631 -81.2208 351° North 105 121 5,000  Level Jacksonville Center
08:02PM 29.8903 -81.2253 352° North 103 119 5,000  Level Jacksonville Center
08:03PM 29.9322 -81.2342 350° North 105 121 5,000  Level Jacksonville Center
08:04PM 29.9489 -81.2361 354° North 105 121 5,000  Level Jacksonville Center
08:05PM 29.9781 -81.2428 349° North 104 120 5,000  Level Jacksonville Center
08:06PM 30.0158 -81.2519 348° North 104 120 5,000  Level Jacksonville Center
08:07PM 30.0450 -81.2536 357° North 110 127 5,000  Level Jacksonville Center
08:08PM 30.0764 -81.2603 350° North 107 123 5,000  Level Jacksonville Center
08:09PM 30.1078 -81.2647 353° North 106 122 5,000  Level Jacksonville Center
08:10PM 30.1353 -81.2739 344° North 108 124 5,000  Level Jacksonville Center
08:11PM 30.1561 -81.2783 350° North 108 124 5,000  Level Jacksonville Center
08:12PM 30.1833 -81.2825 352° North 108 124 5,000  Level Jacksonville Center
08:13PM 30.2147 -81.2892 350° North 105 121 5,000  Level Jacksonville Center
08:14PM 30.2439 -81.2936 353° North 104 120 5,000  Level Jacksonville Center
08:15PM 30.2753 -81.3003 350° North 107 123 5,000  Level Jacksonville Center
08:16PM 30.3067 -81.3069 350° North 104 120 5,000  Level Jacksonville Center
08:17PM 30.3361 -81.3114 353° North 107 123 5,000  Level Jacksonville Center
08:18PM 30.3633 -81.3158 352° North 106 122 5,000  Level Jacksonville Center
08:19PM 30.3906 -81.3225 348° North 107 123 5,000  Level Jacksonville Center
08:20PM 30.4197 -81.3267 353° North 104 120 5,000  Level Jacksonville Center
08:21PM 30.4492 -81.3336 349° North 105 121 5,000 -60 Level Jacksonville Center
08:23PM 30.4931 -81.3400 353° North 114 131 4,900 -60 Descending Jacksonville Center
08:24PM 30.5203 -81.3469 348° North 109 125 4,900  Level Jacksonville Center
08:25PM 30.5494 -81.3536 349° North 104 120 5,000  Climbing Jacksonville Center
08:26PM 30.5789 -81.3581 353° North 104 120 5,000  Level Jacksonville Center
08:27PM 30.6081 -81.3622 353° North 104 120 5,000  Level Jacksonville Center
08:28PM 30.6375 -81.3692 349° North 104 120 5,000  Level Jacksonville Center
08:29PM 30.6667 -81.3733 353° North 104 120 5,000 -60 Level Jacksonville Center
08:30PM 30.6961 -81.3778 353° North 104 120 4,900 -60 Descending Jacksonville Center
08:31PM 30.7253 -81.3847 348° North 104 120 4,900  Level Jacksonville Center
08:32PM 30.7547 -81.3939 345° North 104 120 4,900  Level Jacksonville Center
08:33PM 30.7839 -81.4006 349° North 104 120 4,900  Level Jacksonville Center
08:34PM 30.8131 -81.4025 357° North 104 120 4,900 -60 Level Jacksonville Center
08:35PM 30.8425 -81.4094 349° North 104 120 4,800 -300 Descending Jacksonville Center
08:36PM 30.8761 -81.4161 350° North 109 125 4,400 -600 Descending Jacksonville Center
08:37PM 30.9114 -81.4203 354° North 114 131 3,700 -720 Descending Jacksonville Center
08:38PM 30.9431 -81.4272 349° North 121 139 3,000 -660 Descending Jacksonville Center
08:39PM 30.9619 -81.4536 310° West 111 128 2,400 -600 Descending Jacksonville Center
08:40PM 30.9667 -81.4875 279° West 98 113 1,900 -300 Descending Jacksonville Center
08:41PM 30.9872 -81.4797 18° North 85 98 1,900  Level Jacksonville Center